Terminal Aerodrome Forecast
Issued by NWS Memphis, TN

Home | Current Version | Previous Version | Text Only | Print | Product List | Glossary On
Versions: 1 2 3 4 5 6 7 8 9 10 11 12 13 14 15 16 17 18 19 20 21 22 23 24 25
688
FTUS44 KMEG 241130
TAFMEM
TAF
KMEM 241130Z 2412/2512 17012G21KT P6SM BKN250
     FM241500 18013G22KT P6SM OVC025
     FM241800 18015G25KT P6SM BKN035 OVC250
     FM250600 18020G28KT P6SM VCTS BKN060CB OVC150
      TEMPO 2506/2509 2SM TSRA OVC025CB
     FM250900 20020G25KT 2SM TSRA OVC015CB=

USA.gov is the U.S. government's official web portal to all federal, state and local government web resources and services.